createdAt,value
2023-04-02T00:00:09.862Z,2.70
2023-04-02T00:02:56.680Z,2.55
2023-04-02T00:05:36.326Z,2.97
2023-04-02T00:08:10.291Z,2.20
2023-04-02T00:10:51.185Z,3.95
2023-04-02T00:13:18.022Z,2.53
2023-04-02T00:15:47.967Z,2.67
2023-04-02T00:18:17.657Z,2.53
2023-04-02T00:20:47.759Z,1.83
2023-04-02T00:23:15.462Z,3.25
2023-04-02T00:25:45.614Z,3.35
2023-04-02T00:28:15.073Z,1.85
2023-04-02T00:30:59.977Z,1.85
2023-04-02T00:33:28.657Z,2.97
2023-04-02T00:38:30.652Z,2.28
2023-04-02T00:41:00.548Z,1.90
2023-04-02T00:43:31.011Z,3.92
2023-04-02T00:46:01.441Z,2.38
2023-04-02T00:48:32.888Z,2.63
2023-04-02T00:51:15.191Z,2.15
2023-04-02T00:53:45.486Z,3.63
2023-04-02T00:56:16.869Z,0.40
2023-04-02T00:58:44.986Z,2.33
2023-04-02T01:01:20.057Z,0.32
2023-04-02T01:03:58.303Z,1.42
2023-04-02T01:06:37.599Z,2.42
2023-04-02T01:09:34.641Z,3.10
2023-04-02T01:12:19.756Z,1.10
2023-04-02T01:15:00.139Z,2.25
2023-04-02T01:17:43.368Z,2.40
2023-04-02T01:20:13.394Z,2.70
2023-04-02T01:22:58.673Z,2.40
2023-04-02T01:25:47.808Z,3.28
2023-04-02T01:28:34.179Z,3.20
2023-04-02T01:31:02.838Z,2.45
2023-04-02T01:33:33.391Z,2.78
2023-04-02T01:36:11.617Z,2.90
2023-04-02T01:38:53.799Z,2.97
2023-04-02T01:41:27.723Z,2.55
2023-04-02T01:44:05.956Z,2.08
2023-04-02T01:46:34.522Z,2.10
2023-04-02T01:51:32.850Z,2.40
2023-04-02T01:54:03.778Z,1.90
2023-04-02T01:56:31.201Z,1.55
2023-04-02T01:58:59.387Z,2.08
2023-04-02T02:02:08.039Z,3.20
2023-04-02T02:04:38.221Z,2.05
2023-04-02T02:07:14.710Z,2.22
2023-04-02T02:09:43.849Z,2.30
2023-04-02T02:12:13.842Z,2.60
2023-04-02T02:14:47.346Z,3.30
2023-04-02T02:17:20.385Z,1.85
2023-04-02T02:19:49.976Z,2.45
2023-04-02T02:22:29.365Z,2.70
2023-04-02T02:24:59.044Z,1.45
2023-04-02T02:27:26.070Z,1.85
2023-04-02T02:30:07.651Z,3.42
2023-04-02T02:32:36.612Z,4.05
2023-04-02T02:35:11.839Z,1.13
2023-04-02T02:37:44.851Z,2.17
2023-04-02T02:40:21.275Z,2.60
2023-04-02T02:42:51.741Z,2.80
2023-04-02T02:45:23.034Z,3.10
2023-04-02T02:47:50.740Z,2.72
2023-04-02T02:50:23.738Z,2.90
2023-04-02T02:52:54.913Z,2.80
2023-04-02T02:55:28.002Z,2.47
2023-04-02T02:58:07.118Z,2.40
2023-04-02T03:00:42.871Z,2.45
2023-04-02T03:03:13.819Z,3.30
2023-04-02T03:05:41.978Z,2.88
2023-04-02T03:08:29.048Z,3.20
2023-04-02T03:11:06.318Z,1.40
2023-04-02T03:13:35.749Z,2.90
2023-04-02T03:16:41.443Z,3.28
2023-04-02T03:19:31.977Z,3.05
2023-04-02T03:22:05.931Z,2.80
2023-04-02T03:25:04.858Z,5.75
2023-04-02T03:27:40.866Z,2.55
2023-04-02T03:30:26.506Z,2.33
2023-04-02T03:33:16.086Z,2.28
2023-04-02T03:35:55.231Z,2.88
2023-04-02T03:38:33.054Z,0.65
2023-04-02T03:41:15.968Z,2.50
2023-04-02T03:43:47.841Z,2.17
2023-04-02T03:46:33.665Z,2.53
2023-04-02T03:49:06.540Z,2.78
2023-04-02T03:51:38.654Z,3.58
2023-04-02T03:54:05.825Z,2.80
2023-04-02T03:56:40.117Z,2.92
2023-04-02T03:59:23.642Z,2.53
2023-04-02T04:02:18.432Z,0.63
2023-04-02T04:04:47.077Z,2.45
2023-04-02T04:07:41.203Z,3.28
2023-04-02T04:10:09.163Z,0.70
2023-04-02T04:12:40.326Z,2.92
2023-04-02T04:15:26.866Z,2.60
2023-04-02T04:18:04.987Z,4.63
2023-04-02T04:20:46.743Z,2.70
2023-04-02T04:23:17.139Z,2.95
2023-04-02T04:25:45.257Z,3.28
2023-04-02T04:28:28.135Z,2.20
2023-04-02T04:31:18.107Z,4.03
2023-04-02T04:33:51.005Z,2.50
2023-04-02T04:36:30.338Z,2.70
2023-04-02T04:39:14.634Z,1.92
2023-04-02T04:41:46.610Z,2.45
2023-04-02T04:44:24.271Z,2.75
2023-04-02T04:47:00.055Z,2.53
2023-04-02T04:49:42.086Z,2.80
2023-04-02T04:52:24.556Z,2.95
2023-04-02T04:54:52.414Z,2.78
2023-04-02T04:57:34.514Z,2.92
2023-04-02T05:00:34.810Z,2.08
2023-04-02T05:03:09.355Z,2.80
2023-04-02T05:05:40.996Z,5.03
2023-04-02T05:08:15.226Z,2.95
2023-04-02T05:10:52.170Z,2.80
2023-04-02T05:13:29.868Z,3.25
2023-04-02T05:16:18.762Z,3.22
2023-04-02T05:19:11.002Z,3.10
2023-04-02T05:21:38.955Z,2.33
2023-04-02T05:26:51.362Z,2.72
2023-04-02T05:29:26.054Z,2.50
2023-04-02T05:31:56.804Z,5.28
2023-04-02T05:34:27.368Z,3.45
2023-04-02T05:36:55.796Z,2.72
2023-04-02T05:39:24.911Z,3.50
2023-04-02T05:42:08.440Z,3.50
2023-04-02T05:45:07.964Z,2.17
2023-04-02T05:47:41.187Z,2.33
2023-04-02T05:50:19.414Z,2.75
2023-04-02T05:52:54.082Z,2.53
2023-04-02T05:55:33.321Z,3.58
2023-04-02T05:58:35.947Z,3.90
2023-04-02T06:01:21.259Z,3.72
2023-04-02T06:03:56.359Z,3.00
2023-04-02T06:06:27.272Z,3.33
2023-04-02T06:08:59.199Z,2.22
2023-04-02T06:11:42.342Z,2.22
2023-04-02T06:14:13.692Z,3.38
2023-04-02T06:16:41.625Z,3.67
2023-04-02T06:19:16.629Z,2.80
2023-04-02T06:21:46.497Z,2.80
2023-04-02T06:24:17.838Z,3.50
2023-04-02T06:26:49.988Z,3.00
2023-04-02T06:29:31.514Z,6.97
2023-04-02T06:32:01.603Z,2.95
2023-04-02T06:34:32.033Z,1.40
2023-04-02T06:37:23.924Z,3.00
2023-04-02T06:39:57.913Z,1.48
2023-04-02T06:42:37.773Z,2.85
2023-04-02T06:45:26.880Z,2.85
2023-04-02T06:48:17.671Z,2.95
2023-04-02T06:50:53.543Z,2.88
2023-04-02T06:53:25.966Z,3.42
2023-04-02T06:56:10.758Z,3.33
2023-04-02T06:58:38.036Z,2.03
2023-04-02T07:01:05.578Z,4.13
2023-04-02T07:03:42.106Z,4.15
2023-04-02T07:06:17.417Z,3.40
2023-04-02T07:08:46.152Z,3.22
2023-04-02T07:13:42.511Z,4.65
2023-04-02T07:16:15.778Z,2.65
2023-04-02T07:18:43.256Z,3.75
2023-04-02T07:21:11.132Z,3.47
2023-04-02T07:23:38.494Z,2.63
2023-04-02T07:26:07.224Z,3.47
2023-04-02T07:31:01.562Z,3.40
2023-04-02T07:33:31.119Z,2.97
2023-04-02T07:35:58.645Z,2.47
2023-04-02T07:38:25.900Z,3.17
2023-04-02T07:40:53.136Z,3.35
2023-04-02T07:43:20.104Z,3.35
2023-04-02T07:45:46.953Z,4.07
2023-04-02T07:48:14.291Z,2.75
2023-04-02T07:50:41.965Z,3.67
2023-04-02T07:53:27.261Z,2.90
2023-04-02T07:55:54.037Z,2.95
2023-04-02T07:58:20.850Z,3.08
2023-04-02T08:00:47.691Z,2.53
2023-04-02T08:03:14.733Z,2.80
2023-04-02T08:05:41.644Z,5.22
2023-04-02T08:08:08.336Z,3.58
2023-04-02T08:10:35.344Z,4.78
2023-04-02T08:13:02.548Z,3.83
2023-04-02T08:15:29.502Z,2.55
2023-04-02T08:17:57.202Z,3.05
2023-04-02T08:20:24.612Z,3.42
2023-04-02T08:22:51.788Z,3.45
2023-04-02T08:25:18.688Z,3.65
2023-04-02T08:27:49.729Z,3.70
2023-04-02T08:30:17.632Z,3.22
2023-04-02T08:32:44.916Z,2.97
2023-04-02T08:35:14.903Z,3.42
2023-04-02T08:37:42.464Z,4.65
2023-04-02T08:40:19.334Z,3.20
2023-04-02T08:43:09.732Z,3.63
2023-04-02T08:46:15.184Z,2.10
2023-04-02T08:48:46.976Z,2.88
2023-04-02T08:51:25.030Z,3.75
2023-04-02T08:53:54.834Z,2.97
2023-04-02T08:56:41.564Z,3.22
2023-04-02T08:59:35.932Z,3.38
2023-04-02T09:02:06.478Z,3.80
2023-04-02T09:04:34.002Z,3.33
2023-04-02T09:07:01.198Z,3.20
2023-04-02T09:09:28.329Z,2.78
2023-04-02T09:12:05.291Z,3.47
2023-04-02T09:15:07.401Z,3.00
2023-04-02T09:17:42.649Z,3.55
2023-04-02T09:20:17.498Z,3.20
2023-04-02T09:25:18.917Z,2.60
2023-04-02T09:27:49.755Z,2.75
2023-04-02T09:30:32.317Z,3.20
2023-04-02T09:33:02.181Z,2.92
2023-04-02T09:35:32.474Z,3.00
2023-04-02T09:38:08.180Z,2.80
2023-04-02T09:41:03.920Z,2.40
2023-04-02T09:43:35.466Z,2.63
2023-04-02T09:46:05.252Z,2.47
2023-04-02T09:48:41.791Z,3.38
2023-04-02T09:51:16.551Z,2.65
2023-04-02T09:54:13.297Z,2.95
2023-04-02T09:56:41.343Z,2.47
2023-04-02T09:59:14.061Z,3.13
2023-04-02T10:01:45.404Z,1.13
2023-04-02T10:04:37.421Z,2.42
2023-04-02T10:09:35.595Z,2.83
2023-04-02T10:12:05.510Z,2.85
2023-04-02T10:14:43.375Z,2.95
2023-04-02T10:17:17.204Z,2.75
2023-04-02T10:19:49.054Z,2.58
2023-04-02T10:22:18.756Z,6.07
2023-04-02T10:24:45.721Z,4.90
2023-04-02T10:27:29.686Z,2.97
2023-04-02T10:30:05.544Z,2.17
2023-04-02T10:32:46.856Z,3.13
2023-04-02T10:35:25.345Z,4.85
2023-04-02T10:38:08.328Z,3.22
2023-04-02T10:40:37.284Z,3.42
2023-04-02T10:43:37.891Z,4.05
2023-04-02T10:46:14.394Z,4.15
2023-04-02T10:48:59.915Z,3.88
2023-04-02T10:51:29.686Z,4.07
2023-04-02T10:54:15.483Z,3.17
2023-04-02T10:56:50.709Z,1.85
2023-04-02T10:59:28.715Z,4.25
2023-04-02T11:01:57.719Z,3.80
2023-04-02T11:04:46.124Z,4.47
2023-04-02T11:07:22.882Z,2.60
2023-04-02T11:09:52.286Z,3.50
2023-04-02T11:12:25.712Z,4.55
2023-04-02T11:14:53.886Z,2.58
2023-04-02T11:17:21.049Z,3.30
2023-04-02T11:19:47.945Z,3.55
2023-04-02T11:22:24.933Z,3.40
2023-04-02T11:24:54.819Z,0.90
2023-04-02T11:27:23.846Z,3.35
2023-04-02T11:29:50.936Z,1.48
2023-04-02T11:32:20.761Z,3.08
2023-04-02T11:35:03.055Z,3.55
2023-04-02T11:37:32.283Z,3.40
2023-04-02T11:40:06.158Z,4.07
2023-04-02T11:42:34.511Z,3.72
2023-04-02T11:45:23.873Z,5.32
2023-04-02T11:48:00.049Z,1.92
2023-04-02T11:50:35.628Z,4.15
2023-04-02T11:53:23.262Z,4.53
2023-04-02T11:56:05.074Z,4.47
2023-04-02T11:58:50.418Z,5.00
2023-04-02T12:01:40.470Z,7.18
2023-04-02T12:04:29.482Z,1.35
2023-04-02T12:07:36.694Z,4.13
2023-04-02T12:10:18.911Z,3.20
2023-04-02T12:12:46.539Z,2.65
2023-04-02T12:15:28.905Z,2.35
2023-04-02T12:18:06.198Z,1.15
2023-04-02T12:20:33.693Z,2.60
2023-04-02T12:23:01.347Z,3.10
2023-04-02T12:25:31.819Z,1.83
2023-04-02T12:28:20.083Z,2.92
2023-04-02T12:30:48.311Z,3.83
2023-04-02T12:33:26.703Z,3.83
2023-04-02T12:36:01.803Z,3.10
2023-04-02T12:38:34.529Z,3.33
2023-04-02T12:41:04.329Z,3.90
2023-04-02T12:43:33.694Z,5.13
2023-04-02T12:46:06.213Z,3.97
2023-04-02T12:48:33.911Z,5.75
2023-04-02T12:51:01.379Z,3.65
2023-04-02T12:53:37.347Z,3.53
2023-04-02T12:56:04.524Z,3.72
2023-04-02T12:58:42.655Z,1.33
2023-04-02T13:01:14.859Z,4.40
2023-04-02T13:03:42.153Z,3.53
2023-04-02T13:06:27.186Z,3.50
2023-04-02T13:08:55.171Z,2.65
2023-04-02T13:11:22.741Z,2.63
2023-04-02T13:13:50.600Z,2.95
2023-04-02T13:16:17.880Z,3.25
2023-04-02T13:18:47.060Z,3.08
2023-04-02T13:21:17.403Z,4.95
2023-04-02T13:23:46.180Z,4.05
2023-04-02T13:29:10.654Z,2.95
2023-04-02T13:31:38.060Z,2.55
2023-04-02T13:34:04.902Z,2.50
2023-04-02T13:36:32.158Z,4.00
2023-04-02T13:38:59.098Z,2.15
2023-04-02T13:41:27.648Z,3.10
2023-04-02T13:46:27.148Z,2.83
2023-04-02T13:48:55.455Z,1.02
2023-04-02T13:51:32.870Z,2.38
2023-04-02T13:53:59.791Z,3.20
2023-04-02T13:56:27.404Z,2.40
2023-04-02T13:58:54.696Z,3.75
2023-04-02T14:01:22.988Z,3.42
2023-04-02T14:03:50.288Z,3.33
2023-04-02T14:06:35.554Z,3.47
2023-04-02T14:09:09.408Z,2.83
2023-04-02T14:11:52.474Z,3.40
2023-04-02T14:14:48.265Z,2.70
2023-04-02T14:17:49.978Z,2.53
2023-04-02T14:20:29.104Z,2.95
2023-04-02T14:23:14.915Z,4.28
2023-04-02T14:25:56.666Z,2.70
2023-04-02T14:28:27.035Z,4.65
2023-04-02T14:31:15.138Z,4.13
2023-04-02T14:33:58.033Z,0.80
2023-04-02T14:36:34.171Z,2.92
2023-04-02T14:39:19.674Z,3.42
2023-04-02T14:41:52.582Z,4.47
2023-04-02T14:44:22.378Z,3.25
2023-04-02T14:46:50.246Z,3.20
2023-04-02T14:49:27.211Z,2.67
2023-04-02T14:51:59.179Z,3.22
2023-04-02T14:54:28.952Z,2.90
2023-04-02T14:57:21.423Z,3.13
2023-04-02T15:00:05.113Z,2.78
2023-04-02T15:02:54.768Z,3.45
2023-04-02T15:05:46.920Z,2.25
2023-04-02T15:11:11.280Z,3.05
2023-04-02T15:13:41.416Z,2.38
2023-04-02T15:16:18.883Z,2.65
2023-04-02T15:18:46.474Z,2.67
2023-04-02T15:21:19.142Z,2.80
2023-04-02T15:24:11.940Z,3.10
2023-04-02T15:27:21.946Z,2.90
2023-04-02T15:30:01.582Z,2.85
2023-04-02T15:32:32.505Z,5.63
2023-04-02T15:35:33.813Z,3.08
2023-04-02T15:38:22.675Z,4.72
2023-04-02T15:40:58.938Z,3.22
2023-04-02T15:44:10.738Z,2.47
2023-04-02T15:46:42.393Z,3.40
2023-04-02T15:49:21.971Z,3.28
2023-04-02T15:52:10.519Z,4.45
2023-04-02T15:54:37.542Z,3.80
2023-04-02T15:57:21.496Z,3.85
2023-04-02T16:00:11.459Z,3.65
2023-04-02T16:02:53.224Z,4.28
2023-04-02T16:05:36.996Z,2.72
2023-04-02T16:08:14.008Z,5.20
2023-04-02T16:10:43.015Z,3.83
2023-04-02T16:13:30.828Z,4.97
2023-04-02T16:16:03.599Z,5.15
2023-04-02T16:18:41.410Z,4.90
2023-04-02T16:21:11.024Z,4.07
2023-04-02T16:23:39.336Z,2.13
2023-04-02T16:26:17.976Z,4.90
2023-04-02T16:29:03.011Z,3.30
2023-04-02T16:31:50.888Z,4.68
2023-04-02T16:35:15.222Z,4.60
2023-04-02T16:37:51.489Z,4.30
2023-04-02T16:40:41.430Z,5.28
2023-04-02T16:43:30.106Z,3.65
2023-04-02T16:46:38.172Z,5.60
2023-04-02T16:49:18.772Z,4.95
2023-04-02T16:51:56.851Z,4.50
2023-04-02T16:54:45.952Z,5.00
2023-04-02T16:57:33.209Z,5.65
2023-04-02T17:00:25.250Z,7.45
2023-04-02T17:03:02.985Z,7.00
2023-04-02T17:05:40.388Z,10.27
2023-04-02T17:08:23.172Z,6.15
2023-04-02T17:10:55.819Z,6.53
2023-04-02T17:13:41.783Z,8.25
2023-04-02T17:16:14.022Z,9.40
2023-04-02T17:18:43.648Z,7.75
2023-04-02T17:21:14.715Z,7.45
2023-04-02T17:24:00.879Z,9.10
2023-04-02T17:26:29.883Z,10.85
2023-04-02T17:28:59.078Z,7.22
2023-04-02T17:31:27.856Z,5.55
2023-04-02T17:33:54.564Z,9.05
2023-04-02T17:36:35.457Z,7.57
2023-04-02T17:39:04.892Z,7.03
2023-04-02T17:42:14.448Z,6.15
2023-04-02T17:45:01.386Z,2.53
2023-04-02T17:47:43.346Z,5.10
2023-04-02T17:50:35.428Z,7.32
2023-04-02T17:53:36.140Z,7.50
2023-04-02T17:56:24.855Z,7.70
2023-04-02T17:58:51.571Z,6.90
2023-04-02T18:01:35.883Z,6.40
2023-04-02T18:04:02.689Z,5.55
2023-04-02T18:06:46.872Z,8.90
2023-04-02T18:09:35.244Z,7.18
2023-04-02T18:12:06.952Z,8.20
2023-04-02T18:14:45.963Z,7.50
2023-04-02T18:17:18.946Z,8.40
2023-04-02T18:20:03.898Z,7.60
2023-04-02T18:22:42.615Z,9.23
2023-04-02T18:25:32.676Z,9.00
2023-04-02T18:28:02.344Z,8.77
2023-04-02T18:30:39.789Z,6.97
2023-04-02T18:33:18.350Z,7.93
2023-04-02T18:36:01.218Z,6.70
2023-04-02T18:38:44.953Z,6.75
2023-04-02T18:41:18.197Z,7.82
2023-04-02T18:43:54.844Z,7.75
2023-04-02T18:46:28.893Z,8.15
2023-04-02T18:48:59.051Z,7.53
2023-04-02T18:51:29.278Z,7.85
2023-04-02T18:54:35.832Z,7.55
2023-04-02T18:57:11.367Z,6.72
2023-04-02T18:59:41.583Z,8.63
2023-04-02T19:02:17.287Z,8.98
2023-04-02T19:04:52.467Z,6.93
2023-04-02T19:07:20.055Z,10.18
2023-04-02T19:09:48.438Z,10.65
2023-04-02T19:12:19.048Z,7.88
2023-04-02T19:14:50.133Z,7.60
2023-04-02T19:17:23.792Z,7.63
2023-04-02T19:20:02.643Z,9.23
2023-04-02T19:22:47.792Z,7.80
2023-04-02T19:25:27.313Z,8.63
2023-04-02T19:27:58.103Z,8.02
2023-04-02T19:30:49.186Z,9.30
2023-04-02T19:33:48.399Z,11.45
2023-04-02T19:36:34.035Z,8.63
2023-04-02T19:39:00.888Z,8.75
2023-04-02T19:41:49.859Z,8.43
2023-04-02T19:44:17.486Z,5.97
2023-04-02T19:46:45.052Z,8.57
2023-04-02T19:49:16.968Z,9.35
2023-04-02T19:51:44.108Z,9.63
2023-04-02T19:54:11.300Z,8.70
2023-04-02T19:56:38.020Z,8.48
2023-04-02T19:59:17.079Z,7.28
2023-04-02T20:01:45.664Z,7.78
2023-04-02T20:04:13.289Z,7.95
2023-04-02T20:06:40.461Z,7.28
2023-04-02T20:09:08.737Z,9.25
2023-04-02T20:11:37.108Z,9.13
2023-04-02T20:14:04.267Z,9.43
2023-04-02T20:16:31.250Z,11.73
2023-04-02T20:18:58.347Z,11.20
2023-04-02T20:21:24.989Z,8.60
2023-04-02T20:23:55.710Z,10.25
2023-04-02T20:26:23.333Z,10.57
2023-04-02T20:28:50.107Z,12.77
2023-04-02T20:31:18.477Z,11.18
2023-04-02T20:33:45.599Z,10.23
2023-04-02T20:36:15.018Z,11.10
2023-04-02T20:38:41.959Z,12.20
2023-04-02T20:41:09.240Z,14.80
2023-04-02T20:43:37.660Z,12.45
2023-04-02T20:46:05.762Z,13.80
2023-04-02T20:48:34.140Z,10.73
2023-04-02T20:51:02.861Z,11.32
2023-04-02T20:53:31.028Z,11.63
2023-04-02T20:56:11.694Z,11.55
2023-04-02T20:58:40.063Z,13.10
2023-04-02T21:01:28.852Z,12.10
2023-04-02T21:04:00.373Z,11.63
2023-04-02T21:06:30.248Z,11.25
2023-04-02T21:08:57.303Z,10.95
2023-04-02T21:11:24.671Z,12.45
2023-04-02T21:13:51.712Z,9.00
2023-04-02T21:16:23.445Z,11.15
2023-04-02T21:18:52.321Z,12.60
2023-04-02T21:26:17.522Z,9.88
2023-04-02T21:28:45.616Z,11.27
2023-04-02T21:31:20.889Z,12.23
2023-04-02T21:33:52.572Z,13.50
2023-04-02T21:36:24.070Z,9.38
2023-04-02T21:38:53.434Z,10.30
2023-04-02T21:41:26.512Z,7.47
2023-04-02T21:43:54.075Z,9.90
2023-04-02T21:46:23.831Z,10.23
2023-04-02T21:48:51.893Z,10.20
2023-04-02T21:51:21.582Z,9.60
2023-04-02T21:53:49.348Z,9.73
2023-04-02T21:56:18.519Z,11.55
2023-04-02T21:58:46.550Z,9.23
2023-04-02T22:01:26.116Z,9.38
2023-04-02T22:03:58.452Z,10.07
2023-04-02T22:06:26.701Z,10.52
2023-04-02T22:08:58.203Z,12.27
2023-04-02T22:11:39.780Z,10.55
2023-04-02T22:14:06.881Z,11.30
2023-04-02T22:16:34.829Z,13.60
2023-04-02T22:19:04.712Z,10.77
2023-04-02T22:21:31.629Z,9.88
2023-04-02T22:24:02.722Z,10.55
2023-04-02T22:26:29.755Z,14.32
2023-04-02T22:28:56.750Z,9.60
2023-04-02T22:31:27.497Z,10.68
2023-04-02T22:33:55.971Z,11.38
2023-04-02T22:36:24.587Z,11.18
2023-04-02T22:38:51.892Z,13.63
2023-04-02T22:41:22.518Z,12.23
2023-04-02T22:43:50.242Z,11.90
2023-04-02T22:46:18.497Z,12.05
2023-04-02T22:48:46.770Z,11.95
2023-04-02T22:51:15.412Z,12.13
2023-04-02T22:53:43.222Z,10.35
2023-04-02T22:56:14.122Z,10.52
2023-04-02T22:58:41.738Z,10.13
2023-04-02T23:01:13.306Z,10.35
2023-04-02T23:03:40.344Z,10.13
2023-04-02T23:06:09.981Z,11.20
2023-04-02T23:08:37.563Z,10.43
2023-04-02T23:11:07.703Z,12.35
2023-04-02T23:13:35.975Z,9.88
2023-04-02T23:16:04.535Z,10.93
2023-04-02T23:18:36.167Z,7.95
2023-04-02T23:21:04.266Z,9.85
2023-04-02T23:23:31.682Z,8.60
2023-04-02T23:26:09.958Z,9.40
2023-04-02T23:28:38.525Z,9.45
2023-04-02T23:31:07.658Z,11.30
2023-04-02T23:33:35.599Z,9.00
2023-04-02T23:36:10.227Z,8.65
2023-04-02T23:38:37.095Z,8.38
2023-04-02T23:41:03.980Z,10.45
2023-04-02T23:43:30.971Z,11.48
2023-04-02T23:45:57.961Z,9.43
2023-04-02T23:48:24.942Z,14.35
2023-04-02T23:50:52.177Z,9.90
2023-04-02T23:53:19.281Z,14.60
2023-04-02T23:55:46.186Z,9.02
2023-04-02T23:58:13.242Z,9.20
